Time;durP1;ratioP1;P1;durP2;ratioP2;P2;SDS_P1;SDS_P2;PMS_P1;PMS_P2;Temp;Humidity;BMP_temperature;BMP_pressure;BME280_temperature;BME280_humidity;BME280_pressure;Samples;Min_cycle;Max_cycle;Signal;HPM_P1;HPM_P2
2023/10/26 00:01:30;;;;;;;16.73;12.20;;;;;;;10.17;100.00;99522.84;5093389;28;20031;-65
2023/10/26 00:03:55;;;;;;;18.00;12.27;;;;;;;10.19;100.00;99526.25;5093493;28;20028;-65
2023/10/26 00:06:20;;;;;;;19.17;13.10;;;;;;;10.20;100.00;99535.06;5092224;28;20028;-65
2023/10/26 00:08:46;;;;;;;15.77;12.57;;;;;;;10.18;100.00;99535.19;5080872;28;20027;-65
2023/10/26 00:11:11;;;;;;;18.02;12.38;;;;;;;10.16;100.00;99545.09;5073360;28;20031;-65
2023/10/26 00:13:37;;;;;;;16.92;12.00;;;;;;;10.15;100.00;99538.09;5089496;28;20049;-65
2023/10/26 00:16:03;;;;;;;16.15;12.35;;;;;;;10.15;100.00;99545.25;5055655;28;20459;-65
2023/10/26 00:18:28;;;;;;;16.35;12.23;;;;;;;10.13;100.00;99545.34;5074122;28;20065;-65
2023/10/26 00:21:00;;;;;;;17.25;12.32;;;;;;;10.14;100.00;99548.84;5092624;28;20031;-65
2023/10/26 00:23:26;;;;;;;16.73;11.70;;;;;;;10.10;100.00;99539.44;5092220;28;20074;-65
2023/10/26 00:25:54;;;;;;;16.77;13.05;;;;;;;10.11;100.00;99534.00;5092999;28;20051;-65
2023/10/26 00:28:20;;;;;;;19.33;11.88;;;;;;;10.16;100.00;99546.91;5092662;28;20032;-65
2023/10/26 00:30:46;;;;;;;16.35;12.63;;;;;;;10.20;100.00;99564.28;5070984;28;20023;-65
2023/10/26 00:33:14;;;;;;;18.65;12.30;;;;;;;10.20;100.00;99565.13;5092074;28;20027;-65
2023/10/26 00:35:39;;;;;;;17.08;11.90;;;;;;;10.20;100.00;99562.47;5091338;28;20085;-65
2023/10/26 00:38:05;;;;;;;16.20;12.18;;;;;;;10.20;100.00;99566.94;5086053;28;20024;-65
2023/10/26 00:40:30;;;;;;;25.42;12.60;;;;;;;10.12;100.00;99553.47;5072275;28;20103;-65
2023/10/26 00:43:00;;;;;;;18.95;12.88;;;;;;;10.14;100.00;99559.47;5054406;28;20020;-65
2023/10/26 00:45:33;;;;;;;23.98;21.95;;;;;;;9.92;100.00;99561.22;5086485;28;20482;-65
2023/10/26 00:47:59;;;;;;;20.27;12.57;;;;;;;10.07;100.00;99577.72;5092262;28;20032;-65
2023/10/26 00:50:25;;;;;;;17.35;12.75;;;;;;;10.04;100.00;99574.50;5075606;28;20056;-65
2023/10/26 00:52:54;;;;;;;16.13;11.13;;;;;;;10.08;100.00;99576.75;5057076;28;20102;-65
2023/10/26 00:55:20;;;;;;;18.48;11.48;;;;;;;10.02;100.00;99572.78;5067602;28;20028;-65
2023/10/26 00:57:46;;;;;;;14.00;10.50;;;;;;;10.06;100.00;99584.03;5055327;28;20012;-65
2023/10/26 01:00:12;;;;;;;14.57;10.90;;;;;;;10.07;100.00;99583.03;5092434;28;20414;-65
2023/10/26 01:02:38;;;;;;;12.60;9.60;;;;;;;10.07;100.00;99585.69;5073549;28;20096;-64
2023/10/26 01:05:04;;;;;;;14.10;9.73;;;;;;;10.06;100.00;99592.00;5069608;28;20348;-65
2023/10/26 01:07:29;;;;;;;12.30;10.10;;;;;;;10.06;100.00;99591.13;5084959;28;20028;-65
2023/10/26 01:09:55;;;;;;;19.92;18.13;;;;;;;9.93;100.00;99593.94;5072125;28;20393;-65
2023/10/26 01:12:21;;;;;;;12.70;9.60;;;;;;;10.10;100.00;99585.44;5076352;28;20633;-64
2023/10/26 01:14:46;;;;;;;14.20;10.48;;;;;;;10.15;100.00;99579.78;5092273;28;20102;-65
2023/10/26 01:17:12;;;;;;;17.05;10.60;;;;;;;10.12;100.00;99586.19;5091400;28;20108;-64
2023/10/26 01:19:39;;;;;;;21.50;19.35;;;;;;;9.93;100.00;99584.16;5074043;28;20031;-65
2023/10/26 01:22:04;;;;;;;18.77;10.88;;;;;;;10.14;100.00;99578.06;5091708;28;20028;-64
2023/10/26 01:24:30;;;;;;;14.50;10.52;;;;;;;10.17;100.00;99580.47;5073781;28;20085;-65
2023/10/26 01:26:55;;;;;;;20.65;18.75;;;;;;;10.01;100.00;99578.25;5087700;28;20021;-64
2023/10/26 01:29:20;;;;;;;13.90;9.65;;;;;;;10.15;100.00;99585.94;5089861;28;20402;-65
2023/10/26 01:31:46;;;;;;;14.15;10.55;;;;;;;10.15;100.00;99591.25;5070774;28;20017;-65
2023/10/26 01:34:11;;;;;;;15.82;10.98;;;;;;;10.15;100.00;99593.06;5091360;28;20030;-65
2023/10/26 01:36:36;;;;;;;15.10;10.57;;;;;;;10.08;100.00;99579.41;5088072;28;20567;-65
2023/10/26 01:39:02;;;;;;;12.90;9.77;;;;;;;10.13;100.00;99584.38;5077512;28;20043;-65
2023/10/26 01:41:34;;;;;;;18.38;11.82;;;;;;;10.14;100.00;99586.88;5087190;28;20442;-65
2023/10/26 01:44:00;;;;;;;16.15;11.00;;;;;;;10.12;100.00;99590.66;5073868;28;20028;-65
2023/10/26 01:46:26;;;;;;;11.57;9.50;;;;;;;10.11;100.00;99592.44;5090999;28;20490;-64
2023/10/26 01:48:51;;;;;;;13.63;10.10;;;;;;;10.09;100.00;99594.41;5091797;28;20050;-65
2023/10/26 01:51:17;;;;;;;13.48;10.20;;;;;;;10.03;100.00;99581.63;5091167;28;20024;-65
2023/10/26 01:53:42;;;;;;;15.30;10.30;;;;;;;10.06;100.00;99584.03;5073069;28;20073;-65
2023/10/26 01:56:08;;;;;;;14.07;10.05;;;;;;;10.07;100.00;99588.34;5091176;28;20087;-64
2023/10/26 01:58:36;;;;;;;16.85;10.75;;;;;;;9.97;100.00;99580.31;5060899;28;20028;-65
2023/10/26 02:01:03;;;;;;;18.45;10.55;;;;;;;10.07;100.00;99596.34;5053500;28;20410;-65
2023/10/26 02:03:29;;;;;;;14.27;10.32;;;;;;;10.08;100.00;99595.34;5071429;28;20016;-64
2023/10/26 02:05:54;;;;;;;14.45;10.43;;;;;;;10.09;100.00;99599.72;5089112;28;20103;-64
2023/10/26 02:08:20;;;;;;;15.27;10.70;;;;;;;10.05;100.00;99586.78;5064679;28;20024;-65
2023/10/26 02:10:45;;;;;;;14.45;11.05;;;;;;;10.04;100.00;99585.94;5093389;28;20527;-65
2023/10/26 02:13:11;;;;;;;20.38;18.60;;;;;;;9.83;100.00;99579.72;5091381;28;20081;-64
2023/10/26 02:15:36;;;;;;;20.38;18.67;;;;;;;9.70;100.00;99575.38;5072722;28;20074;-65
2023/10/26 02:18:02;;;;;;;20.27;18.38;;;;;;;9.67;100.00;99572.13;5072638;28;20023;-66
2023/10/26 02:20:30;;;;;;;13.65;10.02;;;;;;;9.85;100.00;99575.97;5073073;28;20082;-65
2023/10/26 02:22:55;;;;;;;16.73;10.43;;;;;;;9.83;100.00;99577.91;5091134;28;20028;-64
2023/10/26 02:25:20;;;;;;;13.55;10.15;;;;;;;9.75;100.00;99575.03;5090751;28;20082;-65
2023/10/26 02:27:46;;;;;;;20.00;18.17;;;;;;;9.54;100.00;99570.47;5091521;28;20028;-65
2023/10/26 02:30:12;;;;;;;13.88;10.35;;;;;;;9.75;100.00;99578.50;5091291;28;20020;-65
2023/10/26 02:32:39;;;;;;;14.30;10.27;;;;;;;9.63;100.00;99552.13;5090259;28;20049;-65
2023/10/26 02:35:04;;;;;;;14.50;10.07;;;;;;;9.70;100.00;99569.22;5089537;28;20023;-65
2023/10/26 02:37:32;;;;;;;14.45;10.35;;;;;;;9.64;100.00;99561.75;5087230;28;20024;-65
2023/10/26 02:39:58;;;;;;;14.60;11.10;;;;;;;9.59;100.00;99562.16;5091300;28;20040;-65
2023/10/26 02:42:23;;;;;;;21.90;19.80;;;;;;;9.39;100.00;99576.16;5073208;28;20044;-65
2023/10/26 02:44:49;;;;;;;22.77;19.90;;;;;;;9.32;100.00;99567.78;5073765;28;20489;-65
2023/10/26 02:47:14;;;;;;;22.00;10.50;;;;;;;9.49;100.00;99569.97;5058320;28;20031;-65
2023/10/26 02:49:39;;;;;;;14.55;9.85;;;;;;;9.44;100.00;99561.56;5087547;28;20530;-65
2023/10/26 02:56:07;;;;;;;17.20;9.77;;;;;;;9.45;100.00;99575.66;5091670;28;20081;-65
2023/10/26 02:58:37;;;;;;;11.88;9.07;;;;;;;9.34;100.00;99555.25;5107430;28;20051;-65
2023/10/26 03:01:03;;;;;;;13.57;9.68;;;;;;;9.36;100.00;99568.44;5113275;28;20023;-65
2023/10/26 03:03:30;;;;;;;14.90;10.10;;;;;;;9.33;100.00;99561.53;5095480;28;20379;-65
2023/10/26 03:05:58;;;;;;;14.32;10.73;;;;;;;9.32;100.00;99563.38;5095580;28;20032;-65
2023/10/26 03:08:24;;;;;;;21.42;19.45;;;;;;;9.18;100.00;99566.25;5113040;28;20206;-65
2023/10/26 03:10:52;;;;;;;12.90;9.27;;;;;;;9.24;100.00;99555.16;5112145;28;20024;-65
2023/10/26 03:13:18;;;;;;;15.85;10.25;;;;;;;9.28;100.00;99571.66;5114048;28;20024;-65
2023/10/26 03:15:43;;;;;;;21.02;19.02;;;;;;;9.03;100.00;99568.28;5101886;28;20080;-65
2023/10/26 03:18:08;;;;;;;15.60;10.02;;;;;;;9.18;100.00;99578.66;5096523;28;20428;-65
2023/10/26 03:20:34;;;;;;;17.48;9.80;;;;;;;9.18;100.00;99576.84;5114404;28;20047;-64
2023/10/26 03:22:59;;;;;;;15.70;10.18;;;;;;;9.11;100.00;99570.31;5115164;28;20019;-65
2023/10/26 03:25:25;;;;;;;17.85;11.60;;;;;;;9.12;100.00;99573.81;5114419;28;20053;-65
2023/10/26 03:27:51;;;;;;;16.90;11.27;;;;;;;9.10;100.00;99573.94;5114715;28;20466;-65
2023/10/26 03:30:17;;;;;;;15.32;10.52;;;;;;;9.03;100.00;99568.28;5113532;28;20027;-65
2023/10/26 03:32:44;;;;;;;12.02;9.15;;;;;;;9.07;100.00;99571.53;5096455;28;20027;-65
2023/10/26 03:35:09;;;;;;;18.55;10.75;;;;;;;9.08;100.00;99570.56;5113280;28;20419;-64
2023/10/26 03:37:38;;;;;;;12.73;9.43;;;;;;;9.06;100.00;99575.16;5096445;28;20027;-66
2023/10/26 03:40:07;;;;;;;22.50;19.55;;;;;;;8.73;100.00;99565.31;5075799;28;20031;-65
2023/10/26 03:42:32;;;;;;;14.43;9.68;;;;;;;8.91;100.00;99549.81;5109958;28;20055;-65
2023/10/26 03:44:58;;;;;;;16.42;10.13;;;;;;;8.95;100.00;99556.56;5114401;28;20047;-65
2023/10/26 03:47:23;;;;;;;21.27;19.17;;;;;;;8.71;100.00;99559.31;5096245;28;20670;-65
2023/10/26 03:49:52;;;;;;;14.85;10.00;;;;;;;8.87;100.00;99552.69;5113525;28;20058;-65
2023/10/26 03:52:21;;;;;;;22.92;10.38;;;;;;;8.90;100.00;99551.63;5112768;28;20088;-65
2023/10/26 03:54:49;;;;;;;15.65;10.45;;;;;;;8.90;100.00;99548.13;5114157;28;20020;-65
2023/10/26 03:57:17;;;;;;;16.85;10.45;;;;;;;8.90;100.00;99537.53;5113863;28;20469;-65
2023/10/26 03:59:42;;;;;;;13.68;9.68;;;;;;;8.92;100.00;99546.22;5113678;28;20366;-65
2023/10/26 04:02:08;;;;;;;15.77;10.40;;;;;;;8.90;100.00;99543.66;5094621;28;20119;-65
2023/10/26 04:04:34;;;;;;;17.00;9.57;;;;;;;8.88;100.00;99534.97;5094878;28;20031;-65
2023/10/26 04:06:59;;;;;;;11.93;8.68;;;;;;;8.90;100.00;99538.34;5078691;28;20031;-65
2023/10/26 04:09:27;;;;;;;15.75;10.57;;;;;;;8.90;100.00;99542.81;5113628;28;20044;-64
2023/10/26 04:11:55;;;;;;;17.40;10.52;;;;;;;8.90;100.00;99530.41;5111622;28;20465;-65
2023/10/26 04:14:20;;;;;;;14.77;9.63;;;;;;;8.90;100.00;99532.22;5113493;28;20035;-65
2023/10/26 04:16:47;;;;;;;31.25;20.25;;;;;;;8.67;100.00;99513.63;5114064;28;20028;-65
2023/10/26 04:19:13;;;;;;;32.75;11.18;;;;;;;8.83;100.00;99527.38;5113356;28;20023;-65
2023/10/26 04:21:39;;;;;;;46.78;22.35;;;;;;;8.71;100.00;99531.00;5078129;28;20034;-65
2023/10/26 04:24:04;;;;;;;29.75;10.57;;;;;;;8.84;100.00;99537.03;5113692;28;20031;-65
2023/10/26 04:26:32;;;;;;;46.97;12.02;;;;;;;8.85;100.00;99540.50;5113851;28;20024;-65
2023/10/26 04:28:58;;;;;;;32.22;11.68;;;;;;;8.85;100.00;99540.50;5112400;28;20031;-65
2023/10/26 04:31:23;;;;;;;84.82;12.98;;;;;;;8.84;100.00;99534.38;5113075;28;20386;-65
2023/10/26 04:33:49;;;;;;;65.25;11.57;;;;;;;8.86;100.00;99540.41;5093742;28;20027;-65
2023/10/26 04:36:21;;;;;;;49.72;11.93;;;;;;;8.84;100.00;99541.47;5112426;28;20034;-65
2023/10/26 04:38:46;;;;;;;83.22;12.52;;;;;;;8.77;100.00;99529.69;5111230;28;20408;-65
2023/10/26 04:41:12;;;;;;;57.88;11.60;;;;;;;8.81;100.00;99547.84;5113325;28;20038;-65
2023/10/26 04:43:37;;;;;;;109.85;24.27;;;;;;;8.56;100.00;99537.44;5112613;28;20045;-65
2023/10/26 04:46:03;;;;;;;39.78;12.82;;;;;;;8.72;100.00;99532.66;5095121;28;20031;-65
2023/10/26 04:48:29;;;;;;;34.97;12.65;;;;;;;8.74;100.00;99533.41;5112148;28;20038;-65
2023/10/26 04:50:55;;;;;;;44.10;22.20;;;;;;;8.60;100.00;99536.25;5111210;28;20126;-65
2023/10/26 04:53:23;;;;;;;49.10;12.27;;;;;;;8.75;100.00;99539.53;5106750;28;20114;-65
2023/10/26 04:55:48;;;;;;;39.28;11.82;;;;;;;8.76;100.00;99530.63;5098754;28;20096;-65
2023/10/26 04:58:14;;;;;;;38.13;10.25;;;;;;;8.79;100.00;99536.53;5112645;28;20039;-65
2023/10/26 05:00:39;;;;;;;34.40;10.80;;;;;;;8.75;100.00;99527.13;5092554;28;20119;-65
2023/10/26 05:03:07;;;;;;;39.55;10.50;;;;;;;8.79;100.00;99536.53;5093840;28;20100;-65
2023/10/26 05:05:32;;;;;;;18.38;10.52;;;;;;;8.78;100.00;99539.31;5107084;28;20103;-65
2023/10/26 05:07:58;;;;;;;56.55;10.55;;;;;;;8.76;100.00;99543.88;5092825;28;20028;-65
2023/10/26 05:10:23;;;;;;;80.40;19.55;;;;;;;8.54;100.00;99532.25;5110536;28;20028;-65
2023/10/26 05:12:49;;;;;;;56.30;11.05;;;;;;;8.69;100.00;99538.19;5109862;28;20398;-65
2023/10/26 05:15:14;;;;;;;27.73;9.85;;;;;;;8.70;100.00;99529.28;5090574;28;20063;-65
2023/10/26 05:17:39;;;;;;;42.63;10.88;;;;;;;8.70;100.00;99523.97;5091309;28;20471;-65
2023/10/26 05:20:07;;;;;;;27.67;10.23;;;;;;;8.69;100.00;99516.16;5111437;28;20046;-64
2023/10/26 05:22:33;;;;;;;23.75;9.63;;;;;;;8.72;100.00;99524.72;5111635;28;20028;-64
2023/10/26 05:25:00;;;;;;;59.80;10.98;;;;;;;8.73;100.00;99523.75;5112433;28;20039;-65
2023/10/26 05:27:26;;;;;;;75.43;11.43;;;;;;;8.71;100.00;99523.03;5112338;28;20030;-64
2023/10/26 05:29:52;;;;;;;83.57;12.68;;;;;;;8.68;100.00;99517.97;5112467;28;20118;-64
2023/10/26 05:32:18;;;;;;;107.22;13.57;;;;;;;8.60;100.00;99513.25;5112005;28;20052;-65
2023/10/26 05:34:45;;;;;;;34.97;11.35;;;;;;;8.63;100.00;99514.81;5110870;28;20023;-65
2023/10/26 05:37:11;;;;;;;30.83;9.70;;;;;;;8.61;100.00;99514.09;5091092;28;20526;-64
2023/10/26 05:39:36;;;;;;;38.17;10.02;;;;;;;8.63;100.00;99518.31;5109484;28;20165;-64
2023/10/26 05:42:04;;;;;;;61.60;10.60;;;;;;;8.63;100.00;99525.41;5109692;27;20035;-65
2023/10/26 05:44:30;;;;;;;45.90;9.60;;;;;;;8.61;100.00;99514.09;5111241;28;20478;-64
2023/10/26 05:46:56;;;;;;;40.53;10.10;;;;;;;8.63;100.00;99520.97;5112079;28;20081;-65
2023/10/26 05:49:21;;;;;;;18.40;10.13;;;;;;;8.61;100.00;99509.63;5093988;28;20023;-65
2023/10/26 05:51:46;;;;;;;41.95;9.43;;;;;;;8.63;100.00;99514.81;5111660;28;20024;-65
2023/10/26 05:54:12;;;;;;;39.38;11.23;;;;;;;8.59;100.00;99508.91;5113210;28;20055;-65
2023/10/26 05:56:37;;;;;;;33.88;9.95;;;;;;;8.57;100.00;99513.47;5094033;28;20586;-64
2023/10/26 05:59:03;;;;;;;68.68;20.48;;;;;;;8.42;100.00;99504.06;5110306;28;20055;-65
2023/10/26 06:01:28;;;;;;;49.05;10.07;;;;;;;8.51;100.00;99499.84;5093715;28;20027;-65
2023/10/26 06:03:53;;;;;;;71.55;10.85;;;;;;;8.46;100.00;99497.53;5111128;28;20070;-64
2023/10/26 06:06:19;;;;;;;48.45;10.68;;;;;;;8.41;100.00;99497.91;5107299;28;20115;-65
2023/10/26 06:08:44;;;;;;;37.33;10.80;;;;;;;8.45;100.00;99509.13;5111629;28;20106;-65
2023/10/26 06:11:10;;;;;;;56.58;12.18;;;;;;;8.37;100.00;99507.00;5111127;28;20031;-64
2023/10/26 06:13:35;;;;;;;21.42;10.30;;;;;;;8.43;100.00;99505.72;5111218;28;20493;-64
2023/10/26 06:16:00;;;;;;;37.03;10.57;;;;;;;8.40;100.00;99498.03;5112143;28;20031;-65
2023/10/26 06:18:26;;;;;;;32.30;11.48;;;;;;;8.43;100.00;99497.78;5111424;28;20386;-64
2023/10/26 06:21:01;;;;;;;21.27;11.35;;;;;;;8.55;100.00;99515.41;5093087;28;20084;-64
2023/10/26 06:23:27;;;;;;;51.17;11.77;;;;;;;8.52;100.00;99505.03;5097878;28;20375;-65
2023/10/26 06:25:58;;;;;;;51.47;12.80;;;;;;;8.54;100.00;99504.94;5096737;28;20058;-64
2023/10/26 06:28:24;;;;;;;69.55;13.05;;;;;;;8.53;100.00;99500.56;5080321;28;20367;-65
2023/10/26 06:30:49;;;;;;;54.90;12.75;;;;;;;8.54;100.00;99505.75;5108059;28;20035;-65
2023/10/26 06:33:15;;;;;;;35.58;12.07;;;;;;;8.55;100.00;99496.84;5091271;28;20035;-65
2023/10/26 06:35:43;;;;;;;60.72;13.93;;;;;;;8.46;100.00;99486.94;5113160;28;20583;-65
2023/10/26 06:38:08;;;;;;;49.28;10.48;;;;;;;8.53;100.00;99500.56;5113245;28;20050;-65
2023/10/26 06:40:36;;;;;;;57.55;11.98;;;;;;;8.43;100.00;99500.44;5091123;28;20032;-65
2023/10/26 06:43:01;;;;;;;73.05;13.75;;;;;;;8.49;100.00;99513.22;5114433;28;20145;-65
2023/10/26 06:45:26;;;;;;;59.30;12.27;;;;;;;8.48;100.00;99511.53;5095371;28;20166;-65
2023/10/26 06:47:52;;;;;;;20.02;11.63;;;;;;;8.46;100.00;99510.78;5095445;28;20031;-65
2023/10/26 06:50:17;;;;;;;37.22;12.60;;;;;;;8.48;100.00;99503.59;5113341;28;20035;-64
2023/10/26 06:52:43;;;;;;;59.70;11.57;;;;;;;8.50;100.00;99503.44;5113968;28;20023;-64
2023/10/26 06:55:14;;;;;;;31.73;12.10;;;;;;;8.45;100.00;99498.53;5113651;28;20032;-64
2023/10/26 06:57:41;;;;;;;34.95;11.02;;;;;;;8.47;100.00;99504.56;5113684;28;20031;-64
2023/10/26 07:00:06;;;;;;;54.33;12.35;;;;;;;8.51;100.00;99503.34;5095431;28;20031;-64
2023/10/26 07:02:32;;;;;;;54.50;12.32;;;;;;;8.54;100.00;99504.94;5113943;28;20024;-65
2023/10/26 07:04:59;;;;;;;27.75;13.15;;;;;;;8.55;100.00;99491.53;5113063;28;20036;-64
2023/10/26 07:07:28;;;;;;;41.85;13.82;;;;;;;8.62;100.00;99491.94;5113657;28;20081;-64
2023/10/26 07:09:54;;;;;;;68.17;14.27;;;;;;;8.62;100.00;99487.47;5113610;28;20023;-64
2023/10/26 07:12:19;;;;;;;44.72;12.85;;;;;;;8.67;100.00;99497.72;5114186;28;20043;-64
2023/10/26 07:14:45;;;;;;;35.70;12.10;;;;;;;8.65;100.00;99491.69;5113367;28;20123;-63
2023/10/26 07:17:10;;;;;;;26.15;10.40;;;;;;;8.67;100.00;99505.66;5112826;28;20032;-64
2023/10/26 07:19:36;;;;;;;56.85;25.25;;;;;;;8.51;100.00;99500.69;5113768;28;20066;-64
2023/10/26 07:22:02;;;;;;;29.60;11.93;;;;;;;8.63;100.00;99510.34;5088961;28;20020;-64
2023/10/26 07:24:29;;;;;;;42.80;14.02;;;;;;;8.53;100.00;99495.28;5111628;28;20131;-64
2023/10/26 07:26:54;;;;;;;40.08;10.98;;;;;;;8.57;100.00;99505.53;5091396;28;20043;-64
2023/10/26 07:29:22;;;;;;;25.33;11.63;;;;;;;8.62;100.00;99503.38;5113271;28;20024;-64
2023/10/26 07:31:50;;;;;;;21.58;11.75;;;;;;;8.65;100.00;99491.69;5088372;28;20024;-65
2023/10/26 07:34:15;;;;;;;68.90;24.10;;;;;;;8.55;100.00;99503.94;5111425;28;20027;-64
2023/10/26 07:36:40;;;;;;;26.77;11.25;;;;;;;8.67;100.00;99505.66;5112703;28;20081;-64
2023/10/26 07:39:06;;;;;;;21.38;11.48;;;;;;;8.74;100.00;99501.59;5093663;28;20503;-64
2023/10/26 07:41:31;;;;;;;40.42;11.13;;;;;;;8.79;100.00;99495.91;5112454;28;20027;-64
2023/10/26 07:43:56;;;;;;;40.67;23.70;;;;;;;8.69;100.00;99493.16;5113102;28;20099;-64
2023/10/26 07:46:22;;;;;;;30.10;11.48;;;;;;;8.78;100.00;99491.59;5112535;28;20030;-64
2023/10/26 07:48:47;;;;;;;33.78;11.40;;;;;;;8.73;100.00;99502.53;5113215;28;20433;-64
2023/10/26 07:51:13;;;;;;;60.95;24.92;;;;;;;8.56;100.00;99500.34;5092292;28;20483;-64
2023/10/26 07:53:38;;;;;;;46.25;12.30;;;;;;;8.74;100.00;99516.66;5104036;28;20364;-64
2023/10/26 07:56:04;;;;;;;25.17;11.98;;;;;;;8.73;100.00;99513.13;5110595;28;20406;-64
2023/10/26 07:58:30;;;;;;;39.90;11.77;;;;;;;8.75;100.00;99513.03;5109584;28;20027;-64
2023/10/26 08:00:56;;;;;;;28.27;12.38;;;;;;;8.67;100.00;99508.31;5111885;28;20031;-64
2023/10/26 08:03:25;;;;;;;38.58;12.75;;;;;;;8.59;100.00;99500.13;5075638;28;20456;-64
2023/10/26 08:05:57;;;;;;;38.58;13.63;;;;;;;8.76;100.00;99530.63;5110405;28;20073;-65
2023/10/26 08:08:23;;;;;;;34.00;12.95;;;;;;;8.72;100.00;99530.00;5106967;28;20092;-64
2023/10/26 08:10:48;;;;;;;26.17;13.32;;;;;;;8.74;100.00;99538.69;5110731;28;20115;-64
2023/10/26 08:13:14;;;;;;;40.50;14.50;;;;;;;8.79;100.00;99533.03;5111357;28;20024;-65
2023/10/26 08:15:43;;;;;;;31.05;11.95;;;;;;;8.79;100.00;99525.91;5091158;28;20023;-65
2023/10/26 08:18:12;;;;;;;52.85;26.10;;;;;;;8.73;100.00;99534.34;5093519;28;20474;-65
2023/10/26 08:20:38;;;;;;;36.95;14.77;;;;;;;8.81;100.00;99521.34;5090930;28;20031;-65
2023/10/26 08:23:03;;;;;;;44.75;13.65;;;;;;;8.91;100.00;99542.69;5112279;28;20019;-65
2023/10/26 08:25:29;;;;;;;39.53;14.35;;;;;;;8.99;100.00;99542.94;5091794;28;20020;-65
2023/10/26 08:27:54;;;;;;;34.45;13.73;;;;;;;8.96;100.00;99527.28;5110976;28;20039;-65
2023/10/26 08:30:20;;;;;;;25.77;12.75;;;;;;;9.04;100.00;99535.47;5110927;28;20020;-65
2023/10/26 08:32:48;;;;;;;28.45;15.30;;;;;;;9.09;100.00;99540.44;5110147;28;20421;-64
2023/10/26 08:35:13;;;;;;;29.63;15.25;;;;;;;9.11;100.00;99533.19;5109395;28;20117;-64
2023/10/26 08:37:39;;;;;;;30.23;15.32;;;;;;;9.12;100.00;99539.34;5109499;28;20551;-65
2023/10/26 08:40:11;;;;;;;35.22;14.68;;;;;;;9.16;100.00;99535.50;5090706;28;20497;-64
2023/10/26 08:42:40;;;;;;;28.05;15.32;;;;;;;9.15;100.00;99537.31;5107369;28;20026;-65
2023/10/26 08:45:11;;;;;;;29.38;14.85;;;;;;;9.10;100.00;99526.22;5109098;28;20077;-65
2023/10/26 08:47:37;;;;;;;44.17;16.75;;;;;;;9.14;100.00;99529.47;5090735;28;20374;-65
2023/10/26 08:50:03;;;;;;;31.70;15.13;;;;;;;9.21;100.00;99526.22;5110181;28;20019;-65
2023/10/26 08:52:28;;;;;;;32.15;14.82;;;;;;;9.29;100.00;99529.13;5111484;28;20364;-64
2023/10/26 08:54:55;;;;;;;33.38;15.82;;;;;;;9.34;100.00;99528.72;5110711;28;20052;-64
2023/10/26 08:57:21;;;;;;;31.52;16.63;;;;;;;9.39;100.00;99528.38;5092303;28;20458;-65
2023/10/26 08:59:46;;;;;;;52.63;16.30;;;;;;;9.41;100.00;99535.25;5111059;28;20039;-65
2023/10/26 09:02:12;;;;;;;34.53;30.40;;;;;;;9.32;100.00;99523.56;5091541;28;20039;-65
2023/10/26 09:04:37;;;;;;;41.15;34.42;;;;;;;9.38;100.00;99529.31;5090362;28;20034;-64
2023/10/26 09:07:03;;;;;;;41.45;34.88;;;;;;;9.34;100.00;99512.81;5109662;28;20027;-64
2023/10/26 09:09:28;;;;;;;32.33;16.20;;;;;;;9.55;100.00;99528.81;5110353;28;20027;-64
2023/10/26 09:12:08;;;;;;;30.13;15.95;;;;;;;9.55;100.00;99524.34;5109112;28;20484;-64
2023/10/26 09:14:33;;;;;;;32.90;16.52;;;;;;;9.54;100.00;99520.03;5091343;28;20028;-64
2023/10/26 09:17:00;;;;;;;29.13;17.00;;;;;;;9.62;100.00;99524.72;5108964;28;20439;-65
2023/10/26 09:19:37;;;;;;;38.95;33.50;;;;;;;9.57;100.00;99524.25;5110131;28;20023;-65
2023/10/26 09:22:03;;;;;;;30.27;14.48;;;;;;;9.71;100.00;99524.00;5088974;28;20034;-65
2023/10/26 09:24:31;;;;;;;41.10;34.30;;;;;;;9.70;100.00;99522.28;5107969;28;20019;-65
2023/10/26 09:26:59;;;;;;;38.72;17.20;;;;;;;9.74;100.00;99530.88;5104476;28;20020;-65
2023/10/26 09:29:42;;;;;;;33.17;15.93;;;;;;;9.80;100.00;99526.88;5109525;28;20035;-65
2023/10/26 09:32:08;;;;;;;30.70;16.88;;;;;;;9.73;100.00;99519.38;5103913;28;20025;-66
2023/10/26 09:34:41;;;;;;;38.17;33.72;;;;;;;9.61;100.00;99516.88;5088570;28;20391;-65
2023/10/26 09:37:07;;;;;;;30.20;17.63;;;;;;;9.60;100.00;99500.13;5107794;28;20028;-65
2023/10/26 09:39:35;;;;;;;36.17;17.23;;;;;;;9.73;100.00;99524.69;5108595;28;20026;-64
2023/10/26 09:42:01;;;;;;;33.90;17.95;;;;;;;9.74;100.00;99518.44;5110335;28;20026;-64
2023/10/26 09:44:33;;;;;;;30.10;16.35;;;;;;;9.78;100.00;99525.16;5092497;28;20057;-64
2023/10/26 09:46:58;;;;;;;39.42;32.25;;;;;;;9.69;100.00;99519.75;5109879;28;20030;-66
2023/10/26 09:49:27;;;;;;;33.60;16.63;;;;;;;9.84;100.00;99512.38;5091288;28;20028;-65
2023/10/26 09:51:55;;;;;;;37.25;17.80;;;;;;;9.84;100.00;99504.41;5091634;28;20027;-65
2023/10/26 09:54:26;;;;;;;33.45;16.60;;;;;;;9.89;100.00;99505.72;5092468;28;20023;-65
2023/10/26 09:57:03;;;;;;;30.80;16.40;;;;;;;9.89;100.00;99499.56;5090793;28;20961;-64
2023/10/26 09:59:30;;;;;;;37.03;31.48;;;;;;;9.78;100.00;99493.31;5108884;28;20046;-65
2023/10/26 10:01:56;;;;;;;29.60;16.42;;;;;;;9.90;100.00;99502.06;5109845;28;20028;-65
2023/10/26 10:04:37;;;;;;;36.08;29.58;;;;;;;9.85;100.00;99500.75;5091833;28;20041;-65
2023/10/26 10:07:03;;;;;;;32.55;28.95;;;;;;;9.67;100.00;99497.78;5092150;28;20115;-65
2023/10/26 10:09:29;;;;;;;31.85;16.23;;;;;;;9.82;100.00;99498.34;5110019;28;20114;-65
2023/10/26 10:12:03;;;;;;;27.08;14.52;;;;;;;9.87;100.00;99490.88;5110667;28;20035;-65
2023/10/26 10:14:47;;;;;;;26.35;14.80;;;;;;;9.87;100.00;99489.06;5091594;28;20115;-65
2023/10/26 10:17:17;;;;;;;25.60;14.98;;;;;;;9.83;100.00;99487.63;5109817;28;20035;-65
2023/10/26 10:19:51;;;;;;;29.00;15.82;;;;;;;9.85;100.00;99492.78;5109312;28;20035;-65
2023/10/26 10:22:38;;;;;;;25.95;14.93;;;;;;;9.86;100.00;99483.88;5109924;28;20123;-65
2023/10/26 10:25:04;;;;;;;26.30;15.40;;;;;;;9.87;100.00;99482.91;5110194;28;20520;-65
2023/10/26 10:27:29;;;;;;;32.58;29.27;;;;;;;9.76;100.00;99473.16;5088523;28;20034;-65
2023/10/26 10:29:56;;;;;;;27.23;14.75;;;;;;;9.92;100.00;99470.94;5110385;28;20028;-65
2023/10/26 10:32:43;;;;;;;32.33;28.90;;;;;;;9.84;100.00;99462.75;5110283;28;20145;-65
2023/10/26 10:35:10;;;;;;;33.67;30.27;;;;;;;9.72;100.00;99467.25;5109598;28;20042;-65
2023/10/26 10:37:36;;;;;;;26.95;14.05;;;;;;;9.84;100.00;99462.75;5092824;28;20027;-65
2023/10/26 10:40:09;;;;;;;28.85;15.65;;;;;;;9.87;100.00;99470.47;5110719;28;20024;-65
2023/10/26 10:42:35;;;;;;;21.65;13.13;;;;;;;9.89;100.00;99468.53;5108222;28;20028;-65
2023/10/26 10:45:03;;;;;;;72.43;37.92;;;;;;;9.71;100.00;99462.91;5109360;28;20414;-66
2023/10/26 10:47:29;;;;;;;29.10;26.05;;;;;;;9.69;100.00;99454.22;5111270;28;20035;-65
2023/10/26 10:50:18;;;;;;;29.52;26.33;;;;;;;9.82;100.00;99461.19;5109557;28;20024;-65
2023/10/26 10:52:47;;;;;;;32.13;14.02;;;;;;;9.93;100.00;99447.88;5108887;28;20632;-65
2023/10/26 10:55:33;;;;;;;97.50;27.13;;;;;;;10.09;100.00;99444.78;5111336;28;20031;-65
2023/10/26 10:58:00;;;;;;;33.08;14.95;;;;;;;10.15;100.00;99450.44;5110401;28;20520;-64
2023/10/26 11:00:42;;;;;;;33.55;29.58;;;;;;;10.06;100.00;99448.56;5110456;28;20058;-65
2023/10/26 11:03:08;;;;;;;64.22;21.42;;;;;;;10.21;100.00;99441.09;5093435;28;20016;-64
2023/10/26 11:05:41;;;;;;;32.05;16.35;;;;;;;10.23;100.00;99436.47;5111183;28;20027;-65
2023/10/26 11:08:07;;;;;;;53.85;21.38;;;;;;;10.29;100.00;99443.97;5113295;28;20022;-64
2023/10/26 11:10:34;;;;;;;43.05;30.23;;;;;;;10.17;100.00;99439.66;5113519;28;20377;-65
2023/10/26 11:12:59;;;;;;;29.95;15.05;;;;;;;10.32;100.00;99442.88;5096332;28;20030;-64
2023/10/26 11:15:51;;;;;;;73.90;21.70;;;;;;;10.38;100.00;99440.56;5093752;28;20020;-65
2023/10/26 11:18:16;;;;;;;22.17;12.52;;;;;;;10.63;100.00;99447.25;5106745;28;20218;-65
2023/10/26 11:20:46;;;;;;;19.48;12.27;;;;;;;11.06;100.00;99435.56;5106868;28;20076;-65